createdAt,value
2018-08-03T00:00:02.621Z,3.70
2018-08-03T00:02:30.828Z,3.07
2018-08-03T00:04:59.037Z,3.13
2018-08-03T00:07:27.247Z,3.47
2018-08-03T00:09:55.581Z,3.40
2018-08-03T00:12:23.818Z,3.20
2018-08-03T00:14:52.044Z,3.20
2018-08-03T00:17:20.222Z,3.20
2018-08-03T00:19:48.452Z,3.13
2018-08-03T00:22:16.659Z,2.90
2018-08-03T00:24:44.908Z,2.97
2018-08-03T00:27:13.141Z,4.13
2018-08-03T00:29:41.371Z,3.53
2018-08-03T00:32:09.607Z,3.10
2018-08-03T00:34:37.815Z,3.40
2018-08-03T00:37:06.017Z,2.90
2018-08-03T00:39:34.218Z,3.47
2018-08-03T00:42:02.445Z,3.17
2018-08-03T00:44:30.643Z,2.90
2018-08-03T00:46:58.864Z,3.60
2018-08-03T00:49:27.071Z,3.43
2018-08-03T00:51:55.268Z,2.70
2018-08-03T00:54:23.477Z,3.13
2018-08-03T00:56:51.668Z,3.00
2018-08-03T00:59:19.862Z,2.93
2018-08-03T01:01:48.106Z,3.50
2018-08-03T01:04:16.427Z,3.27
2018-08-03T01:06:44.655Z,3.33
2018-08-03T01:09:13.606Z,3.13
2018-08-03T01:11:41.967Z,3.10
2018-08-03T01:14:10.787Z,3.10
2018-08-03T01:16:39.748Z,3.00
2018-08-03T01:19:08.796Z,2.80
2018-08-03T01:21:36.993Z,3.00
2018-08-03T01:24:05.496Z,4.20
2018-08-03T01:26:33.693Z,3.17
2018-08-03T01:29:01.939Z,3.57
2018-08-03T01:31:30.126Z,2.90
2018-08-03T01:33:58.737Z,3.93
2018-08-03T01:36:26.954Z,3.70
2018-08-03T01:38:55.187Z,3.00
2018-08-03T01:41:23.634Z,4.20
2018-08-03T01:43:51.835Z,3.80
2018-08-03T01:46:20.028Z,3.87
2018-08-03T01:48:48.248Z,3.67
2018-08-03T01:51:16.572Z,3.50
2018-08-03T01:53:44.785Z,3.80
2018-08-03T01:56:13.027Z,3.83
2018-08-03T01:58:41.237Z,3.37
2018-08-03T02:01:10.027Z,3.37
2018-08-03T02:03:38.244Z,3.93
2018-08-03T02:06:06.482Z,3.70
2018-08-03T02:08:34.699Z,4.20
2018-08-03T02:11:02.945Z,4.00
2018-08-03T02:13:31.157Z,3.93
2018-08-03T02:15:59.386Z,3.63
2018-08-03T02:18:27.601Z,3.60
2018-08-03T02:20:55.828Z,3.90
2018-08-03T02:23:24.024Z,3.90
2018-08-03T02:25:52.260Z,3.93
2018-08-03T02:28:20.493Z,3.63
2018-08-03T02:30:48.455Z,3.70
2018-08-03T02:33:16.663Z,3.87
2018-08-03T02:35:44.875Z,4.10
2018-08-03T02:38:13.070Z,3.80
2018-08-03T02:40:41.267Z,5.67
2018-08-03T02:43:09.481Z,3.90
2018-08-03T02:45:37.698Z,4.03
2018-08-03T02:48:05.912Z,4.53
2018-08-03T02:50:34.116Z,4.23
2018-08-03T02:53:02.298Z,4.20
2018-08-03T02:55:30.497Z,4.77
2018-08-03T02:57:58.701Z,4.30
2018-08-03T03:00:26.892Z,4.43
2018-08-03T03:02:55.103Z,5.53
2018-08-03T03:05:23.329Z,4.03
2018-08-03T03:07:51.629Z,5.13
2018-08-03T03:10:19.841Z,4.83
2018-08-03T03:12:48.045Z,4.17
2018-08-03T03:15:16.256Z,5.10
2018-08-03T03:17:44.612Z,4.93
2018-08-03T03:20:12.821Z,4.57
2018-08-03T03:22:41.082Z,5.20
2018-08-03T03:25:09.309Z,4.90
2018-08-03T03:27:37.582Z,4.77
2018-08-03T03:30:06.002Z,5.40
2018-08-03T03:32:40.671Z,4.90
2018-08-03T03:35:08.816Z,5.70
2018-08-03T03:37:37.027Z,5.13
2018-08-03T03:40:05.245Z,5.27
2018-08-03T03:42:33.443Z,5.13
2018-08-03T03:45:01.663Z,5.07
2018-08-03T03:47:29.895Z,6.10
2018-08-03T03:49:58.116Z,4.67
2018-08-03T03:52:26.307Z,5.23
2018-08-03T03:54:54.567Z,5.13
2018-08-03T03:57:22.755Z,5.60
2018-08-03T03:59:50.968Z,5.30
2018-08-03T04:02:19.187Z,5.20
2018-08-03T04:04:47.390Z,6.00
2018-08-03T04:07:15.599Z,5.37
2018-08-03T04:09:43.808Z,5.80
2018-08-03T04:12:12.081Z,5.90
2018-08-03T04:14:40.485Z,6.87
2018-08-03T04:17:08.683Z,5.70
2018-08-03T04:19:37.043Z,5.90
2018-08-03T04:22:05.293Z,6.03
2018-08-03T04:24:33.962Z,5.63
2018-08-03T04:27:02.174Z,6.00
2018-08-03T04:29:30.411Z,6.23
2018-08-03T04:31:58.799Z,5.80
2018-08-03T04:34:27.030Z,6.80
2018-08-03T04:36:55.243Z,7.27
2018-08-03T04:39:23.427Z,6.40
2018-08-03T04:41:51.671Z,6.80
2018-08-03T04:44:20.099Z,6.60
2018-08-03T04:46:48.291Z,6.70
2018-08-03T04:49:16.536Z,6.73
2018-08-03T04:51:44.751Z,6.70
2018-08-03T04:54:12.947Z,6.53
2018-08-03T04:56:41.147Z,5.77
2018-08-03T04:59:09.401Z,6.77
2018-08-03T05:01:37.617Z,6.13
2018-08-03T05:04:05.838Z,6.50
2018-08-03T05:06:34.046Z,6.40
2018-08-03T05:09:02.265Z,7.20
2018-08-03T05:11:30.474Z,5.93
2018-08-03T05:13:58.682Z,6.60
2018-08-03T05:16:26.931Z,6.00
2018-08-03T05:18:55.159Z,6.57
2018-08-03T05:21:23.361Z,6.10
2018-08-03T05:23:51.575Z,7.30
2018-08-03T05:26:19.825Z,7.03
2018-08-03T05:28:48.069Z,6.30
2018-08-03T05:31:16.311Z,7.00
2018-08-03T05:33:44.537Z,7.30
2018-08-03T05:36:12.763Z,6.33
2018-08-03T05:38:40.959Z,5.93
2018-08-03T05:41:09.189Z,6.20
2018-08-03T05:43:37.406Z,5.83
2018-08-03T05:46:05.734Z,6.87
2018-08-03T05:48:33.971Z,6.30
2018-08-03T05:51:02.270Z,6.20
2018-08-03T05:53:30.701Z,8.30
2018-08-03T05:55:58.931Z,9.47
2018-08-03T05:58:27.162Z,8.47
2018-08-03T06:00:55.381Z,15.60
2018-08-03T06:03:23.609Z,7.63
2018-08-03T06:05:51.854Z,7.47
2018-08-03T06:08:20.083Z,8.80
2018-08-03T06:10:48.310Z,12.07
2018-08-03T06:13:16.581Z,10.53
2018-08-03T06:15:44.794Z,9.90
2018-08-03T06:18:13.015Z,7.73
2018-08-03T06:20:41.240Z,8.40
2018-08-03T06:23:09.422Z,8.53
2018-08-03T06:25:37.663Z,9.03
2018-08-03T06:28:06.368Z,9.23
2018-08-03T06:30:34.976Z,9.00
2018-08-03T06:33:03.185Z,8.40
2018-08-03T06:35:31.436Z,8.70
2018-08-03T06:37:59.788Z,8.20
2018-08-03T06:40:27.756Z,7.33
2018-08-03T06:42:55.721Z,9.53
2018-08-03T06:45:23.914Z,9.77
2018-08-03T06:47:52.213Z,11.10
2018-08-03T06:50:20.457Z,9.80
2018-08-03T06:52:48.696Z,9.50
2018-08-03T06:55:16.742Z,9.47
2018-08-03T06:57:44.947Z,9.60
2018-08-03T07:00:15.535Z,10.20
2018-08-03T07:02:44.076Z,10.07
2018-08-03T07:05:12.251Z,9.63
2018-08-03T07:07:40.490Z,10.17
2018-08-03T07:10:09.147Z,9.53
2018-08-03T07:12:37.340Z,10.20
2018-08-03T07:15:05.939Z,9.70
2018-08-03T07:17:34.163Z,10.00
2018-08-03T07:20:02.416Z,9.97
2018-08-03T07:22:30.706Z,9.50
2018-08-03T07:24:58.945Z,9.37
2018-08-03T07:27:27.195Z,9.27
2018-08-03T07:29:55.399Z,8.00
2018-08-03T07:32:23.882Z,9.33
2018-08-03T07:34:52.084Z,10.20
2018-08-03T07:37:20.314Z,8.23
2018-08-03T07:39:48.533Z,9.50
2018-08-03T07:42:16.719Z,8.30
2018-08-03T07:44:44.983Z,8.47
2018-08-03T07:47:13.182Z,8.80
2018-08-03T07:49:41.414Z,8.50
2018-08-03T07:52:09.647Z,8.20
2018-08-03T07:54:37.851Z,9.03
2018-08-03T07:57:06.119Z,8.23
2018-08-03T07:59:34.325Z,9.13
2018-08-03T08:02:02.562Z,8.07
2018-08-03T08:04:30.781Z,7.77
2018-08-03T08:06:59.001Z,9.23
2018-08-03T08:09:27.278Z,8.13
2018-08-03T08:11:55.449Z,7.57
2018-08-03T08:14:23.678Z,8.37
2018-08-03T08:16:51.902Z,7.53
2018-08-03T08:19:20.109Z,7.80
2018-08-03T08:21:48.311Z,7.50
2018-08-03T08:24:16.599Z,8.47
2018-08-03T08:26:44.819Z,7.83
2018-08-03T08:29:13.061Z,8.57
2018-08-03T08:31:41.293Z,7.47
2018-08-03T08:34:09.467Z,8.70
2018-08-03T08:36:37.655Z,7.53
2018-08-03T08:39:07.515Z,7.27
2018-08-03T08:41:35.876Z,7.67
2018-08-03T08:44:03.859Z,7.23
2018-08-03T08:46:31.842Z,8.70
2018-08-03T08:49:00.049Z,7.80
2018-08-03T08:51:28.266Z,8.20
2018-08-03T08:53:56.587Z,7.57
2018-08-03T08:56:24.802Z,8.37
2018-08-03T08:58:53.027Z,7.57
2018-08-03T09:01:21.270Z,8.03
2018-08-03T09:03:49.487Z,8.00
2018-08-03T09:06:17.747Z,8.60
2018-08-03T09:08:45.989Z,8.77
2018-08-03T09:11:14.195Z,7.70
2018-08-03T09:13:42.394Z,7.63
2018-08-03T09:16:10.355Z,7.90
2018-08-03T09:18:38.824Z,7.50
2018-08-03T09:21:07.261Z,8.40
2018-08-03T09:23:35.262Z,6.70
2018-08-03T09:26:03.627Z,7.63
2018-08-03T09:28:31.624Z,7.90
2018-08-03T09:30:59.793Z,8.20
2018-08-03T09:33:28.037Z,7.10
2018-08-03T09:35:56.258Z,6.90
2018-08-03T09:38:24.485Z,6.53
2018-08-03T09:40:52.691Z,6.53
2018-08-03T09:43:21.027Z,5.70
2018-08-03T09:45:49.312Z,6.60
2018-08-03T09:48:17.565Z,6.60
2018-08-03T09:50:45.817Z,6.23
2018-08-03T09:53:14.046Z,6.17
2018-08-03T09:55:42.224Z,6.47
2018-08-03T09:58:10.449Z,5.93
2018-08-03T10:00:43.978Z,5.80
2018-08-03T10:03:11.976Z,6.83
2018-08-03T10:05:40.196Z,6.20
2018-08-03T10:08:08.391Z,6.17
2018-08-03T10:10:36.635Z,6.77
2018-08-03T10:13:04.875Z,7.43
2018-08-03T10:15:33.176Z,6.47
2018-08-03T10:18:01.307Z,6.07
2018-08-03T10:20:29.502Z,6.27
2018-08-03T10:22:57.709Z,5.93
2018-08-03T10:25:25.930Z,5.47
2018-08-03T10:27:54.143Z,5.67
2018-08-03T10:30:22.389Z,5.63
2018-08-03T10:32:50.597Z,4.80
2018-08-03T10:35:18.610Z,4.93
2018-08-03T10:37:47.094Z,5.90
2018-08-03T10:40:15.795Z,5.30
2018-08-03T10:42:44.026Z,5.00
2018-08-03T10:45:12.198Z,5.53
2018-08-03T10:47:40.535Z,5.80
2018-08-03T10:50:09.103Z,4.90
2018-08-03T10:52:37.304Z,4.73
2018-08-03T10:55:05.519Z,5.83
2018-08-03T10:57:33.748Z,4.90
2018-08-03T11:00:01.992Z,5.00
2018-08-03T11:02:30.217Z,5.63
2018-08-03T11:04:58.419Z,5.07
2018-08-03T11:07:26.659Z,5.80
2018-08-03T11:09:55.030Z,5.23
2018-08-03T11:12:23.029Z,5.90
2018-08-03T11:14:51.233Z,5.47
2018-08-03T11:17:19.511Z,5.50
2018-08-03T11:19:47.730Z,5.20
2018-08-03T11:22:15.966Z,5.60
2018-08-03T11:24:44.220Z,5.13
2018-08-03T11:27:12.444Z,5.50
2018-08-03T11:29:40.446Z,5.00
2018-08-03T11:32:08.379Z,4.17
2018-08-03T11:34:36.626Z,4.90
2018-08-03T11:37:04.895Z,4.83
2018-08-03T11:39:33.080Z,4.93
2018-08-03T11:42:01.287Z,4.70
2018-08-03T11:44:29.489Z,4.60
2018-08-03T11:46:57.693Z,5.70
2018-08-03T11:49:25.903Z,5.47
2018-08-03T12:01:44.206Z,5.20
2018-08-03T12:04:12.464Z,4.83
2018-08-03T12:06:40.656Z,4.70
2018-08-03T12:09:09.143Z,4.90
2018-08-03T12:11:37.327Z,4.70
2018-08-03T12:14:05.583Z,4.20
2018-08-03T12:16:34.145Z,4.83
2018-08-03T12:19:02.331Z,4.57
2018-08-03T12:21:30.541Z,5.13
2018-08-03T12:23:58.814Z,5.00
2018-08-03T12:26:26.957Z,5.03
2018-08-03T12:28:55.191Z,4.87
2018-08-03T12:31:23.567Z,4.60
2018-08-03T12:33:51.644Z,5.10
2018-08-03T12:36:19.653Z,4.97
2018-08-03T12:38:48.104Z,5.00
2018-08-03T12:41:16.495Z,4.73
2018-08-03T12:43:44.749Z,4.70
2018-08-03T12:46:12.951Z,5.13
2018-08-03T12:48:41.159Z,4.73
2018-08-03T13:03:26.988Z,4.80
2018-08-03T13:05:55.207Z,4.90
2018-08-03T13:08:23.606Z,4.60
2018-08-03T13:10:51.691Z,4.50
2018-08-03T13:13:20.002Z,4.83
2018-08-03T13:15:48.131Z,4.47
2018-08-03T13:18:16.357Z,5.60
2018-08-03T13:20:44.547Z,5.00
2018-08-03T13:23:12.769Z,5.50
2018-08-03T13:25:41.073Z,5.43
2018-08-03T13:28:09.611Z,4.90
2018-08-03T13:30:37.815Z,5.13
2018-08-03T13:33:06.164Z,6.00
2018-08-03T13:35:34.365Z,5.30
2018-08-03T13:38:02.327Z,5.20
2018-08-03T13:40:30.537Z,5.23
2018-08-03T13:42:58.493Z,5.53
2018-08-03T13:45:26.730Z,4.60
2018-08-03T13:47:55.180Z,5.67
2018-08-03T17:14:46.317Z,4.60
2018-08-03T17:17:14.514Z,3.90
2018-08-03T17:19:42.762Z,4.30
2018-08-03T17:22:11.159Z,4.30
2018-08-03T17:24:39.151Z,4.43
2018-08-03T17:27:07.371Z,5.40
2018-08-03T17:29:35.594Z,4.33
2018-08-03T17:32:03.831Z,4.90
2018-08-03T17:34:32.001Z,4.43
2018-08-03T17:37:00.305Z,8.70
2018-08-03T17:39:28.501Z,4.33
2018-08-03T17:44:24.226Z,4.67
2018-08-03T17:46:52.441Z,5.58
2018-08-03T17:49:20.663Z,6.30
2018-08-03T17:51:48.901Z,5.20
2018-08-03T17:54:17.124Z,5.20
2018-08-03T17:56:45.387Z,5.10
2018-08-03T17:59:13.605Z,5.50
2018-08-03T18:01:41.865Z,5.30
2018-08-03T18:04:10.117Z,5.43
2018-08-03T18:06:38.342Z,5.80
2018-08-03T18:09:07.109Z,5.10
2018-08-03T18:11:35.101Z,5.80
2018-08-03T18:14:03.385Z,4.67
2018-08-03T18:16:31.621Z,5.40
2018-08-03T18:18:59.841Z,5.20
2018-08-03T18:21:28.082Z,4.90
2018-08-03T18:23:56.366Z,5.63
2018-08-03T18:26:24.593Z,4.87
2018-08-03T18:28:52.906Z,5.20
2018-08-03T18:31:21.134Z,4.77
2018-08-03T18:33:49.336Z,5.60
2018-08-03T18:36:17.611Z,5.20
2018-08-03T18:38:45.857Z,4.30
2018-08-03T18:41:14.040Z,5.10
2018-08-03T18:43:42.238Z,5.00
2018-08-03T18:46:10.460Z,3.90
2018-08-03T18:48:38.661Z,4.13
2018-08-03T18:51:06.870Z,4.87
2018-08-03T18:53:35.066Z,5.30
2018-08-03T18:56:03.273Z,5.50
2018-08-03T18:58:31.460Z,4.73
2018-08-03T19:00:59.681Z,7.13
2018-08-03T19:03:27.890Z,5.10
2018-08-03T19:05:56.090Z,5.87
2018-08-03T19:08:24.335Z,5.33
2018-08-03T19:10:52.551Z,5.80
2018-08-03T19:13:20.786Z,5.10
2018-08-03T19:15:49.069Z,5.60
2018-08-03T19:18:17.290Z,4.90
2018-08-03T19:20:45.526Z,4.90
2018-08-03T19:23:13.742Z,4.57
2018-08-03T19:25:41.937Z,4.90
2018-08-03T19:28:10.134Z,5.70
2018-08-03T19:30:38.377Z,10.00
2018-08-03T19:33:06.361Z,8.10
2018-08-03T19:35:34.588Z,7.83
2018-08-03T19:38:02.831Z,4.57
2018-08-03T19:40:31.021Z,5.80
2018-08-03T19:42:59.267Z,4.60
2018-08-03T19:45:27.564Z,4.43
2018-08-03T19:47:55.848Z,4.47
2018-08-03T19:50:24.118Z,4.43
2018-08-03T19:52:52.347Z,4.53
2018-08-03T19:55:20.717Z,13.90
2018-08-03T19:57:49.013Z,10.23
2018-08-03T20:00:17.275Z,5.50
2018-08-03T20:02:45.523Z,4.10
2018-08-03T20:05:13.595Z,4.80
2018-08-03T20:07:41.786Z,5.40
2018-08-03T20:12:55.316Z,4.77
2018-08-03T20:15:23.539Z,5.47
2018-08-03T20:17:51.807Z,5.40
2018-08-03T20:20:20.094Z,5.03
2018-08-03T20:22:48.338Z,5.10
2018-08-03T20:25:16.623Z,4.00
2018-08-03T20:27:44.845Z,4.63
2018-08-03T20:33:03.721Z,4.00
2018-08-03T20:35:32.005Z,3.70
2018-08-03T20:38:00.222Z,3.47
2018-08-03T20:40:28.470Z,4.83
2018-08-03T20:42:56.437Z,3.93
2018-08-03T20:45:24.680Z,4.03
2018-08-03T20:47:52.901Z,3.47
2018-08-03T20:50:21.275Z,3.73
2018-08-03T20:52:49.529Z,4.00
2018-08-03T20:55:17.924Z,4.40
2018-08-03T20:57:46.163Z,4.27
2018-08-03T21:00:14.441Z,3.70
2018-08-03T21:02:42.644Z,4.23
2018-08-03T21:05:10.666Z,4.57
2018-08-03T21:07:38.897Z,4.10
2018-08-03T21:10:07.256Z,3.67
2018-08-03T21:12:35.552Z,3.50
2018-08-03T21:15:04.153Z,4.43
2018-08-03T21:17:32.420Z,5.17
2018-08-03T21:20:00.643Z,3.67
2018-08-03T21:22:28.867Z,4.13
2018-08-03T21:24:56.915Z,3.80
2018-08-03T21:27:25.142Z,3.97
2018-08-03T21:29:53.359Z,4.20
2018-08-03T21:32:21.620Z,11.30
2018-08-03T21:34:49.974Z,6.33
2018-08-03T21:37:18.254Z,9.43
2018-08-03T21:39:46.464Z,7.13
2018-08-03T21:42:14.681Z,5.47
2018-08-03T21:44:42.935Z,3.93
2018-08-03T21:47:11.158Z,12.60
2018-08-03T21:49:39.475Z,5.80
2018-08-03T21:52:07.674Z,3.40
2018-08-03T21:54:35.934Z,3.93
2018-08-03T21:57:04.205Z,3.63
2018-08-03T21:59:32.464Z,3.43
2018-08-03T22:02:00.705Z,4.53
2018-08-03T22:04:29.008Z,5.17
2018-08-03T22:06:57.260Z,5.90
2018-08-03T22:09:25.516Z,3.63
2018-08-03T22:11:53.768Z,3.33
2018-08-03T22:14:21.687Z,2.73
2018-08-03T22:16:49.911Z,3.27
2018-08-03T22:19:18.289Z,5.10
2018-08-03T22:21:46.527Z,7.00
2018-08-03T22:24:14.804Z,3.43
2018-08-03T22:26:43.021Z,3.40
2018-08-03T22:29:11.230Z,2.70
2018-08-03T22:31:39.498Z,3.10
2018-08-03T22:34:07.791Z,3.13
2018-08-03T22:36:35.790Z,2.40
2018-08-03T22:39:05.170Z,2.60
2018-08-03T22:41:33.395Z,2.90
2018-08-03T22:44:01.367Z,3.17
2018-08-03T22:46:29.575Z,2.87
2018-08-03T22:48:57.825Z,3.40
2018-08-03T22:51:26.063Z,4.00
2018-08-03T22:53:54.711Z,3.20
2018-08-03T22:56:22.963Z,2.90
2018-08-03T22:58:51.173Z,3.77
2018-08-03T23:01:19.529Z,3.00
2018-08-03T23:03:47.757Z,3.00
2018-08-03T23:06:15.989Z,3.13
2018-08-03T23:08:44.257Z,3.83
2018-08-03T23:11:12.533Z,3.80
2018-08-03T23:13:40.774Z,3.70
2018-08-03T23:16:09.025Z,3.83
2018-08-03T23:18:36.962Z,3.20
2018-08-03T23:21:05.213Z,3.60
2018-08-03T23:23:33.552Z,2.83
2018-08-03T23:26:01.802Z,3.40
2018-08-03T23:28:30.027Z,3.23
2018-08-03T23:30:58.249Z,3.30
2018-08-03T23:33:26.238Z,3.00
2018-08-03T23:35:54.526Z,3.13
2018-08-03T23:38:22.793Z,3.60
2018-08-03T23:40:51.005Z,3.20
2018-08-03T23:43:19.311Z,3.10
2018-08-03T23:45:47.563Z,3.20
2018-08-03T23:48:15.535Z,4.20
2018-08-03T23:50:43.789Z,4.23
2018-08-03T23:53:12.001Z,4.30
2018-08-03T23:55:40.283Z,4.80
2018-08-03T23:58:08.573Z,4.90
